Warning: Javascript must be enabled to use all the features on this page!


Page Loading - Please Wait...

* We've detected you're using a mobile device. Find our Next Generation Station Page here.
Click to hideNews Bulletins

Peak Streamflow for the Nation

USGS 03353611 WHITE R. AT STOUT GEN. STN. AT INDIANAPOLIS, IN

Marion County, Indiana
Hydrologic Unit Code 05120201
Latitude  39°42'52", Longitude  86°12'02" NAD27
Drainage area 1,898  square miles
Gage datum 662.73 feet above NAVD88
Output formats
Table
Graph
Tab-separated file
peakfq (watstore) format
Reselect output format
Water
Year
Date Gage
Height
(feet)
Stream-
flow
(cfs)
1993 1992-11-14   22,5002
1994 1993-11-17 13.22 36,5005
1995 1995-05-19 8.11 14,2005
1996 1996-05-09 8.69 16,1005
1997 1997-02-27 10.36 22,3005
1998 1998-06-15 11.68 27,8005
1999 1999-01-23 11.63 27,6005
2000 2000-06-16 5.67 6,5105
2001 2001-02-11 6.75 9,7405
2002 2002-05-13 12.24 32,3005
2003 2003-09-01 15.42 51,5005
2004 2004-01-05 9.42 19,1005
2005 2005-01-06 13.83 41,3005
2006 2006-03-12 8.43 15,3005
2007 2007-03-25 11.41 28,0005
2008 2008-02-07 10.78 25,0005
2009 2009-02-12 9.75 20,5005
2010 2010-06-23 10.47 25,4005
2011 2011-03-01 11.94 30,7005
2012 2011-12-22 8.17 14,4005
2013 2013-04-19 13.29 38,1005
2014 2013-12-23 10.44 23,5005
2015 2015-06-29 9.98 21,4005
2016 2015-12-29 9.79 20,6005
2017 2017-05-05 12.01 31,0005
2018 2018-04-04 10.69 24,5005
2019 2019-02-07 10.21 22,4005
2020 2020-01-12 10.15 22,2005
?
  Peak Streamflow Qualification Codes.